CheckWX is a tool to help pilots better visualize weather data.  It is not intended as a substitute for an official pre-flight weather briefing.

07:34:30 UTC

KDWH METAR
David Wayne Hooks Memorial Airport
Houston, Texas, USA
Current

30 mins ago

KDWH 060705Z AUTO 20003KT 10SM BKN020 16/14 A3000 RMK AO2 T01560139
Observed
Dec-6 @ 07:05 UTC
Wind
  • 200° at 3 KTS
Visibility
10 SM
Flight Rules
MVFR
Cloud Levels
  • Broken at 2,000' AGL
Temperature
16°C / 61°F
Dewpoint
14°C / 57°F
Humidity
88%
Altimeter
30" Hg
Pressure
1015.92 hPa
Previous

42 mins ago

KDWH 060653Z AUTO 00000KT 10SM FEW020 16/14 A3001 RMK AO2 SLP160 T01610139
Observed
Dec-6 @ 06:53 UTC
Visibility
10 SM
Flight Rules
VFR
Cloud Levels
  • Few at 2,000' AGL
Temperature
16°C / 61°F
Dewpoint
14°C / 57°F
Humidity
88%
Altimeter
30.01" Hg
Pressure
1016.22 hPa
Previous

2 hours ago

KDWH 060553Z AUTO 17003KT 10SM CLR 17/14 A3001 RMK AO2 SLP161 T01720139 10206 20161 402440078 50001
Observed
Dec-6 @ 05:53 UTC
Wind
  • 170° at 3 KTS
Visibility
10 SM
Flight Rules
VFR
Cloud Levels
  • Clear skies
Temperature
17°C / 63°F
Dewpoint
14°C / 57°F
Humidity
83%
Altimeter
30.01" Hg
Pressure
1016.22 hPa